Time;durP1;ratioP1;P1;durP2;ratioP2;P2;SDS_P1;SDS_P2;PMS_P1;PMS_P2;Temp;Humidity;BMP_temperature;BMP_pressure;BME280_temperature;BME280_humidity;BME280_pressure;Samples;Min_cycle;Max_cycle;Signal;HPM_P1;HPM_P2
2022/03/09 00:00:57;;;;;;;;;78.25;58.75;;;;;6.15;69.96;100621.34;5036131;28;46396;-73
2022/03/09 00:03:22;;;;;;;;;78.25;60.00;;;;;5.55;70.26;100519.88;5034740;28;45348;-72
2022/03/09 00:05:48;;;;;;;;;45.75;38.50;;;;;6.04;70.16;100604.38;5035432;28;45816;-73
2022/03/09 00:08:14;;;;;;;;;38.00;30.25;;;;;6.04;70.15;100604.38;5025232;28;45506;-72
2022/03/09 00:10:40;;;;;;;;;17.50;16.00;;;;;6.06;69.93;100615.69;5036182;28;46186;-73
2022/03/09 00:13:05;;;;;;;;;21.00;19.75;;;;;6.06;69.90;100620.88;5036228;28;45586;-72
2022/03/09 00:15:31;;;;;;;;;57.00;40.25;;;;;6.02;70.11;100608.59;5037008;28;45351;-72
2022/03/09 00:17:56;;;;;;;;;36.00;29.75;;;;;6.00;70.39;100617.13;5037375;28;45470;-73
2022/03/09 00:20:22;;;;;;;;;19.50;19.00;;;;;5.95;70.29;100612.59;5034190;28;46429;-73
2022/03/09 00:22:47;;;;;;;;;12.00;8.25;;;;;5.92;70.48;100609.78;5038307;28;45448;-74
2022/03/09 00:25:13;;;;;;;;;8.25;7.50;;;;;5.81;70.36;100586.75;5037460;28;45466;-73
2022/03/09 00:27:39;;;;;;;;;6.75;6.50;;;;;5.98;70.63;100623.09;5052451;28;45464;-73
2022/03/09 00:30:05;;;;;;;;;9.25;7.50;;;;;5.94;70.43;100620.25;5017911;28;45523;-74
2022/03/09 00:32:31;;;;;;;;;9.25;7.75;;;;;5.83;70.16;100608.44;5034533;28;45359;-73
2022/03/09 00:34:57;;;;;;;;;8.00;8.00;;;;;5.69;70.43;100595.72;5036376;28;45339;-73
2022/03/09 00:37:22;;;;;;;;;7.75;7.75;;;;;5.85;70.69;100633.66;5036361;28;45374;-73
2022/03/09 00:39:48;;;;;;;;;6.00;5.00;;;;;5.76;71.43;100612.44;5035624;28;46131;-73
2022/03/09 00:42:13;;;;;;;;;6.00;4.75;;;;;5.78;70.66;100616.88;5035833;28;45524;-74
2022/03/09 00:44:39;;;;;;;;;5.50;4.25;;;;;5.71;71.01;100614.81;5036004;28;45324;-73
2022/03/09 00:47:05;;;;;;;;;5.25;5.25;;;;;5.58;71.18;100586.50;5035373;28;45605;-74
2022/03/09 00:49:31;;;;;;;;;3.00;3.00;;;;;5.68;70.78;100625.03;5018498;28;45450;-73
2022/03/09 00:51:56;;;;;;;;;4.50;2.00;;;;;5.66;70.98;100615.41;5033389;28;45539;-73
2022/03/09 00:54:22;;;;;;;;;3.00;3.00;;;;;5.62;70.60;100616.94;5016245;28;45518;-72
2022/03/09 00:56:48;;;;;;;;;1.00;1.00;;;;;5.71;70.65;100635.56;5017237;28;45489;-73
2022/03/09 00:59:13;;;;;;;;;2.00;1.75;;;;;5.53;70.42;100603.50;5032259;28;45652;-73
2022/03/09 01:01:40;;;;;;;;;1.00;1.00;;;;;5.45;70.46;100589.25;5033757;28;45621;-73
2022/03/09 01:04:06;;;;;;;;;3.00;2.50;;;;;5.45;70.36;100591.84;5046972;28;45358;-73
2022/03/09 01:06:31;;;;;;;;;2.75;2.00;;;;;5.54;71.41;100607.88;5033824;28;45451;-73
2022/03/09 01:08:59;;;;;;;;;0.50;0.50;;;;;5.35;69.71;100572.34;5033312;28;47278;-73
2022/03/09 01:11:25;;;;;;;;;1.00;1.00;;;;;5.57;70.68;100613.19;5033561;28;45438;-73
2022/03/09 01:13:51;;;;;;;;;1.25;1.25;;;;;5.55;70.97;100609.66;5034315;28;45438;-73
2022/03/09 01:16:16;;;;;;;;;1.00;0.75;;;;;5.47;71.16;100600.59;5034032;28;46432;-73
2022/03/09 01:18:42;;;;;;;;;0.00;0.00;;;;;5.50;71.12;100603.34;5032571;28;45541;-73
2022/03/09 01:21:07;;;;;;;;;1.00;1.00;;;;;5.46;71.23;100602.31;5021344;28;45865;-72
2022/03/09 01:23:34;;;;;;;;;2.00;1.75;;;;;5.31;71.43;100576.50;5032753;28;45560;-72
2022/03/09 01:25:59;;;;;;;;;1.25;1.25;;;;;5.44;71.54;100598.75;5033630;28;45495;-72
2022/03/09 01:28:25;;;;;;;;;1.00;1.00;;;;;5.40;71.41;100585.56;5033923;28;45496;-73
2022/03/09 01:30:51;;;;;;;;;2.50;2.00;;;;;5.49;71.38;100601.56;5033610;28;45509;-73
2022/03/09 01:33:17;;;;;;;;;2.00;1.25;;;;;5.43;71.27;100598.66;5031842;28;45534;-73
2022/03/09 01:35:42;;;;;;;;;4.50;3.00;;;;;5.41;72.25;100597.69;5031016;28;46502;-73
2022/03/09 01:38:08;;;;;;;;;2.00;1.25;;;;;5.28;72.07;100594.47;5035143;28;45417;-72
2022/03/09 01:40:34;;;;;;;;;1.00;1.00;;;;;5.36;72.19;100616.47;5037205;28;45331;-73
2022/03/09 01:42:59;;;;;;;;;1.00;1.00;;;;;5.32;71.64;100619.72;5036661;28;45539;-73
2022/03/09 01:45:25;;;;;;;;;1.00;1.00;;;;;5.25;72.27;100611.53;5037430;28;45444;-73
2022/03/09 01:47:51;;;;;;;;;1.00;1.00;;;;;5.31;72.67;100624.81;5037301;28;45725;-72
2022/03/09 01:50:17;;;;;;;;;1.00;0.50;;;;;5.14;72.19;100590.28;5036346;28;45605;-73
2022/03/09 01:52:43;;;;;;;;;1.00;1.00;;;;;5.11;72.48;100592.69;5034969;28;45540;-73
2022/03/09 01:55:10;;;;;;;;;1.00;1.00;;;;;5.17;72.22;100599.09;5033672;28;45478;-73
2022/03/09 01:57:36;;;;;;;;;1.50;1.00;;;;;5.13;72.45;100581.63;5034933;28;46221;-73
2022/03/09 02:00:04;;;;;;;;;2.00;2.00;;;;;5.28;72.54;100609.13;5036473;28;45306;-73
2022/03/09 02:02:29;;;;;;;;;1.00;1.00;;;;;5.15;72.14;100576.50;5036091;28;45532;-73
2022/03/09 02:04:55;;;;;;;;;2.00;1.50;;;;;5.17;72.69;100582.66;5037542;28;45543;-73
2022/03/09 02:09:41;;;;;;;;;1.50;1.25;;;;;5.08;72.66;100574.44;5051396;28;45629;-72
2022/03/09 02:10:10;;;;;;;;;1.00;1.00;;;;;5.11;72.35;100569.38;5034291;28;45575;-73
2022/03/09 02:12:36;;;;;;;;;0.00;0.00;;;;;5.16;72.02;100584.38;5036424;28;45565;-73
2022/03/09 02:15:02;;;;;;;;;1.75;1.00;;;;;4.94;72.44;100538.34;5036075;28;45556;-73
2022/03/09 02:17:29;;;;;;;;;0.50;0.50;;;;;5.05;72.61;100561.31;5020699;28;46565;-73
2022/03/09 02:19:56;;;;;;;;;1.00;1.00;;;;;4.49;72.94;100470.41;5036031;28;45428;-73
2022/03/09 02:22:37;;;;;;;;;1.50;1.00;;;;;5.09;72.09;100573.59;5018399;28;45673;-73
2022/03/09 02:25:08;;;;;;;;;2.00;1.00;;;;;4.50;72.89;100469.63;5034257;28;45440;-73
2022/03/09 02:27:34;;;;;;;;;1.00;1.00;;;;;5.08;72.13;100561.47;5035452;28;45577;-72
2022/03/09 02:30:03;;;;;;;;;1.00;1.00;;;;;5.19;72.66;100588.81;5035720;28;45335;-72
2022/03/09 02:32:29;;;;;;;;;0.50;0.50;;;;;5.06;72.10;100566.56;5024023;28;45542;-73
2022/03/09 02:34:54;;;;;;;;;1.00;0.00;;;;;5.17;72.48;100574.88;5051430;28;45288;-72
2022/03/09 02:37:20;;;;;;;;;0.75;0.75;;;;;5.06;72.11;100548.44;5035447;28;46549;-72
2022/03/09 02:39:45;;;;;;;;;2.50;2.00;;;;;5.22;72.37;100576.03;5035761;28;45545;-73
2022/03/09 02:42:12;;;;;;;;;0.25;0.25;;;;;5.24;72.00;100569.22;5034243;28;45507;-73
2022/03/09 02:44:38;;;;;;;;;1.00;1.00;;;;;5.14;72.42;100546.25;5036134;28;45553;-73
2022/03/09 02:47:04;;;;;;;;;1.25;1.00;;;;;5.17;72.08;100556.75;5035492;28;46688;-73
2022/03/09 02:49:30;;;;;;;;;2.25;1.50;;;;;5.20;71.95;100556.94;5021171;28;45514;-73
2022/03/09 02:51:55;;;;;;;;;1.00;0.00;;;;;5.15;72.03;100536.00;5036130;28;45536;-73
2022/03/09 02:54:21;;;;;;;;;1.00;1.00;;;;;5.21;71.90;100540.56;5036069;28;45545;-72
2022/03/09 02:56:47;;;;;;;;;1.00;1.00;;;;;5.28;71.75;100552.16;5035794;28;45465;-73
2022/03/09 02:59:12;;;;;;;;;0.00;0.00;;;;;5.29;71.83;100541.88;5035726;28;45386;-73
2022/03/09 03:01:38;;;;;;;;;1.00;1.00;;;;;5.30;71.64;100554.00;5035433;28;47125;-73
2022/03/09 03:04:05;;;;;;;;;1.00;1.00;;;;;5.15;71.75;100529.91;5036110;28;45251;-73
2022/03/09 03:06:31;;;;;;;;;2.00;1.00;;;;;5.23;71.68;100541.53;5035327;28;45953;-74
2022/03/09 03:08:56;;;;;;;;;1.00;1.00;;;;;5.23;71.89;100536.34;5035040;28;45480;-73
2022/03/09 03:11:22;;;;;;;;;2.00;1.00;;;;;5.18;71.61;100535.25;5035005;28;45464;-73
2022/03/09 03:13:49;;;;;;;;;0.75;0.75;;;;;5.20;72.00;100531.03;5051015;28;45613;-72
2022/03/09 03:16:15;;;;;;;;;1.00;1.00;;;;;5.26;72.10;100549.47;5035171;28;46188;-73
2022/03/09 03:18:41;;;;;;;;;0.00;0.00;;;;;5.01;72.09;100495.53;5035365;28;45548;-73
2022/03/09 03:21:07;;;;;;;;;0.00;0.00;;;;;5.25;71.55;100539.03;5035398;28;45372;-73
2022/03/09 03:23:33;;;;;;;;;0.00;0.00;;;;;5.16;72.13;100535.16;5034042;28;45384;-73
2022/03/09 03:26:00;;;;;;;;;0.00;0.00;;;;;5.12;72.19;100515.09;5034856;28;45470;-72
2022/03/09 03:28:25;;;;;;;;;0.00;0.00;;;;;5.14;72.04;100517.78;5034656;28;45573;-72
2022/03/09 03:30:51;;;;;;;;;1.00;1.00;;;;;5.15;71.81;100523.03;5035203;28;45404;-73
2022/03/09 03:33:18;;;;;;;;;1.25;1.00;;;;;5.29;71.31;100528.94;5037876;28;45478;-73
2022/03/09 03:35:44;;;;;;;;;1.25;0.75;;;;;5.60;70.82;100535.63;5037636;28;46685;-73
2022/03/09 03:38:11;;;;;;;;;0.75;0.50;;;;;5.79;69.67;100514.09;5036033;28;45340;-73
2022/03/09 03:40:37;;;;;;;;;1.00;1.00;;;;;6.15;69.33;100534.88;5053101;28;45418;-74
2022/03/09 03:43:04;;;;;;;;;1.00;1.00;;;;;6.30;68.56;100532.09;5035709;28;45522;-73
2022/03/09 03:45:30;;;;;;;;;1.00;1.00;;;;;6.41;68.67;100519.66;5037049;28;46121;-73
2022/03/09 03:47:56;;;;;;;;;2.00;1.00;;;;;6.51;67.97;100522.72;5037401;28;45338;-73
2022/03/09 03:50:22;;;;;;;;;2.00;1.00;;;;;6.53;67.38;100508.09;5037606;28;45714;-73
2022/03/09 03:52:48;;;;;;;;;1.00;1.00;;;;;6.72;67.39;100527.97;5037782;28;45602;-73
2022/03/09 03:55:14;;;;;;;;;1.00;1.00;;;;;6.76;67.34;100529.00;5036370;28;47366;-73
2022/03/09 03:57:40;;;;;;;;;1.25;1.25;;;;;6.65;67.38;100501.69;5037100;28;45359;-73
2022/03/09 04:00:07;;;;;;;;;0.00;0.00;;;;;6.64;67.87;100498.19;5035565;28;45415;-73
2022/03/09 04:02:33;;;;;;;;;1.00;1.00;;;;;6.72;67.82;100514.13;5053067;28;45394;-73
2022/03/09 04:04:59;;;;;;;;;1.00;1.00;;;;;6.65;67.95;100501.69;5037261;28;46125;-73
2022/03/09 04:07:25;;;;;;;;;1.25;1.25;;;;;6.62;67.55;100501.56;5036579;28;45461;-73
2022/03/09 04:09:50;;;;;;;;;2.00;1.00;;;;;6.76;67.34;100513.44;5035335;28;45504;-73
2022/03/09 04:12:16;;;;;;;;;2.00;2.00;;;;;6.59;67.24;100481.53;5037528;28;45479;-74
2022/03/09 04:14:41;;;;;;;;;6.00;5.50;;;;;6.44;67.13;100450.59;5036725;28;46242;-73
2022/03/09 04:17:07;;;;;;;;;12.50;11.25;;;;;6.74;67.36;100503.00;5036789;28;45322;-73
2022/03/09 04:19:32;;;;;;;;;6.00;6.00;;;;;6.65;67.42;100486.13;5036955;28;45514;-73
2022/03/09 04:21:58;;;;;;;;;5.00;3.25;;;;;6.75;67.06;100501.28;5036957;28;45616;-73
2022/03/09 04:24:24;;;;;;;;;6.00;4.50;;;;;6.71;67.24;100489.00;5030895;28;46191;-73
2022/03/09 04:26:50;;;;;;;;;3.00;3.00;;;;;6.65;67.10;100476.63;5032296;28;45569;-73
2022/03/09 04:29:16;;;;;;;;;10.50;10.25;;;;;6.83;66.77;100509.44;5035659;28;45650;-73
2022/03/09 04:31:41;;;;;;;;;6.25;6.00;;;;;6.77;67.27;100497.94;5036063;28;45409;-73
2022/03/09 04:34:07;;;;;;;;;11.75;10.00;;;;;6.73;66.76;100485.63;5035249;28;47715;-73
2022/03/09 04:36:33;;;;;;;;;2.25;2.25;;;;;6.70;66.88;100485.47;5034550;28;45599;-74
2022/03/09 04:38:59;;;;;;;;;18.50;15.25;;;;;6.73;67.18;100484.75;5036828;28;45390;-73
2022/03/09 04:41:25;;;;;;;;;19.75;18.00;;;;;6.86;67.02;100510.41;5035328;28;45492;-73
2022/03/09 04:43:50;;;;;;;;;13.75;12.00;;;;;6.65;66.83;100471.44;5029075;28;47876;-73
2022/03/09 04:46:16;;;;;;;;;10.75;7.00;;;;;6.76;67.01;100478.00;5016805;28;45640;-74
2022/03/09 04:48:43;;;;;;;;;3.00;2.00;;;;;6.80;66.38;100491.09;5015371;28;45403;-73
2022/03/09 04:51:09;;;;;;;;;5.50;4.00;;;;;6.70;66.83;100469.91;5016732;28;45564;-73
2022/03/09 04:53:34;;;;;;;;;4.00;3.00;;;;;6.74;66.39;100460.56;5014985;28;47155;-73
2022/03/09 04:56:00;;;;;;;;;4.50;3.00;;;;;6.86;66.39;100465.41;5016735;28;45442;-73
2022/03/09 04:58:26;;;;;;;;;3.50;3.50;;;;;6.95;66.14;100487.47;5032968;28;45641;-73
2022/03/09 05:00:52;;;;;;;;;3.25;2.00;;;;;7.10;66.06;100497.66;5033927;28;45822;-73
2022/03/09 05:03:18;;;;;;;;;3.00;3.00;;;;;7.13;66.11;100491.69;5035337;28;45319;-74
2022/03/09 05:05:43;;;;;;;;;9.25;9.00;;;;;7.11;65.59;100477.75;5034606;28;45220;-73
2022/03/09 05:08:09;;;;;;;;;6.50;4.50;;;;;7.20;65.36;100485.91;5034916;28;45411;-73
2022/03/09 05:10:35;;;;;;;;;6.00;4.00;;;;;7.41;65.18;100503.25;5035277;28;45542;-74
2022/03/09 05:13:01;;;;;;;;;3.25;3.00;;;;;7.45;64.97;100499.97;5038849;28;46159;-73
2022/03/09 05:15:27;;;;;;;;;7.50;7.00;;;;;7.53;64.44;100486.44;5039313;28;45863;-73
2022/03/09 05:17:53;;;;;;;;;3.00;3.00;;;;;7.64;63.98;100492.09;5038797;28;45583;-73
2022/03/09 05:20:20;;;;;;;;;3.00;3.00;;;;;7.73;64.40;100478.56;5039133;28;45564;-73
2022/03/09 05:22:47;;;;;;;;;3.75;3.00;;;;;8.04;63.29;100511.91;5039128;28;46481;-73
2022/03/09 05:25:13;;;;;;;;;2.00;2.00;;;;;8.04;62.73;100485.88;5038391;28;45379;-73
2022/03/09 05:27:38;;;;;;;;;3.50;3.50;;;;;8.09;62.79;100484.31;5038608;28;45387;-73
2022/03/09 05:30:05;;;;;;;;;3.25;3.00;;;;;8.25;62.70;100504.03;5038704;28;45493;-73
2022/03/09 05:32:31;;;;;;;;;7.00;5.75;;;;;8.22;62.50;100483.09;5038466;28;46333;-73
2022/03/09 05:34:56;;;;;;;;;10.00;9.25;;;;;8.25;62.50;100469.31;5038962;28;45525;-73
2022/03/09 05:37:22;;;;;;;;;15.00;15.00;;;;;8.39;62.29;100490.66;5038796;28;45399;-73
2022/03/09 05:39:48;;;;;;;;;11.25;11.25;;;;;8.53;61.78;100493.00;5039083;28;45314;-73
2022/03/09 05:42:14;;;;;;;;;25.50;24.75;;;;;8.60;61.78;100488.03;5038108;28;46384;-73
2022/03/09 05:44:39;;;;;;;;;26.25;22.75;;;;;8.56;61.31;100474.88;5033295;28;45428;-74
2022/03/09 05:47:05;;;;;;;;;35.25;25.50;;;;;8.53;61.24;100461.75;5025800;28;45406;-72
2022/03/09 05:49:31;;;;;;;;;25.75;23.00;;;;;8.64;61.35;100482.09;5037976;28;45380;-72
2022/03/09 05:51:57;;;;;;;;;25.00;23.50;;;;;8.56;61.04;100474.88;5036737;28;45482;-72
2022/03/09 05:54:23;;;;;;;;;16.50;16.50;;;;;8.51;60.83;100471.19;5038213;28;45479;-72
2022/03/09 05:56:48;;;;;;;;;8.75;8.25;;;;;8.53;61.04;100476.47;5036869;28;45422;-71
2022/03/09 05:59:14;;;;;;;;;3.75;3.75;;;;;8.53;61.26;100471.25;5036948;28;45654;-71
2022/03/09 06:01:39;;;;;;;;;2.75;2.75;;;;;8.55;60.63;100473.13;5037563;28;46518;-72
2022/03/09 06:04:06;;;;;;;;;2.00;2.00;;;;;8.47;60.65;100461.50;5037697;28;45949;-72
2022/03/09 06:06:32;;;;;;;;;2.25;2.25;;;;;8.48;61.01;100471.09;5038328;28;45486;-72
2022/03/09 06:08:57;;;;;;;;;3.00;3.00;;;;;8.45;60.59;100470.97;5038368;28;45462;-72
2022/03/09 06:11:23;;;;;;;;;3.25;2.50;;;;;8.42;60.70;100473.47;5037856;28;45446;-73
2022/03/09 06:13:49;;;;;;;;;3.75;3.25;;;;;8.44;60.96;100489.16;5037713;28;45435;-73
2022/03/09 06:16:15;;;;;;;;;3.00;2.25;;;;;7.97;60.98;100418.81;5039094;28;45367;-73
2022/03/09 06:18:41;;;;;;;;;3.00;2.00;;;;;8.25;61.37;100477.13;5038834;28;45434;-73
2022/03/09 06:21:06;;;;;;;;;10.50;8.00;;;;;8.30;61.49;100491.22;5038837;28;45489;-73
2022/03/09 06:23:32;;;;;;;;;8.75;7.25;;;;;8.25;61.54;100495.34;5038851;28;45402;-73
2022/03/09 06:25:58;;;;;;;;;3.75;3.00;;;;;8.20;61.35;100489.06;5039018;28;45438;-73
2022/03/09 06:28:23;;;;;;;;;3.75;3.00;;;;;8.03;61.33;100462.41;5038890;28;45570;-73
2022/03/09 06:30:49;;;;;;;;;3.50;3.50;;;;;8.27;60.95;100502.38;5038443;28;46422;-72
2022/03/09 06:33:15;;;;;;;;;3.00;3.00;;;;;8.21;61.31;100489.13;5038571;28;45346;-73
2022/03/09 06:35:41;;;;;;;;;3.50;3.00;;;;;8.10;61.21;100467.03;5038252;28;45415;-73
2022/03/09 06:38:06;;;;;;;;;4.00;3.00;;;;;8.17;61.02;100490.72;5038739;28;45965;-72
2022/03/09 06:40:32;;;;;;;;;2.00;2.00;;;;;8.22;60.66;100484.81;5036414;28;45544;-73
2022/03/09 06:42:59;;;;;;;;;3.50;3.25;;;;;8.33;61.07;100501.72;5035023;28;45772;-73
2022/03/09 06:45:28;;;;;;;;;4.75;4.75;;;;;8.42;60.84;100506.44;5035282;28;45451;-73
2022/03/09 06:47:54;;;;;;;;;3.00;3.00;;;;;8.37;60.45;100488.00;5035570;28;45601;-73
2022/03/09 06:50:19;;;;;;;;;2.25;2.25;;;;;8.53;60.33;100508.63;5036379;28;45466;-73
2022/03/09 06:52:45;;;;;;;;;2.75;2.75;;;;;8.61;59.86;100511.47;5034923;28;45431;-73
2022/03/09 06:55:12;;;;;;;;;5.00;3.25;;;;;8.70;59.59;100521.38;5035321;28;45419;-75
2022/03/09 06:57:40;;;;;;;;;3.00;2.00;;;;;8.69;59.64;100509.16;5035467;28;45597;-73
2022/03/09 07:00:10;;;;;;;;;4.25;2.00;;;;;8.75;59.56;100510.31;5035345;28;46832;-72
2022/03/09 07:02:35;;;;;;;;;2.25;2.25;;;;;8.90;58.84;100524.72;5036466;28;45416;-72
2022/03/09 07:05:01;;;;;;;;;5.25;5.00;;;;;8.87;58.65;100506.34;5036504;28;45523;-72
2022/03/09 07:07:27;;;;;;;;;4.75;4.00;;;;;8.91;58.54;100501.31;5031738;28;45504;-72
2022/03/09 07:09:52;;;;;;;;;8.00;7.25;;;;;8.93;58.64;100498.75;5036024;28;45513;-72
2022/03/09 07:12:18;;;;;;;;;8.00;7.00;;;;;9.00;58.02;100497.28;5034636;28;45463;-73
2022/03/09 07:14:43;;;;;;;;;14.25;12.00;;;;;9.07;58.22;100492.34;5036182;28;45396;-73
2022/03/09 07:17:09;;;;;;;;;7.75;6.00;;;;;9.20;58.28;100503.19;5036111;28;46205;-72
2022/03/09 07:19:34;;;;;;;;;12.50;11.75;;;;;9.30;57.86;100520.91;5036217;28;45461;-72
2022/03/09 07:22:00;;;;;;;;;11.25;10.50;;;;;8.96;57.94;100442.44;5036275;28;45521;-72
2022/03/09 07:24:25;;;;;;;;;23.25;20.50;;;;;9.42;57.95;100516.09;5035756;28;45380;-71
2022/03/09 07:26:51;;;;;;;;;7.25;6.25;;;;;9.45;57.16;100490.16;5035772;28;45489;-72
2022/03/09 07:29:17;;;;;;;;;5.00;5.00;;;;;9.66;56.79;100513.44;5035457;28;45506;-72
2022/03/09 07:31:43;;;;;;;;;4.00;3.50;;;;;9.84;56.44;100517.50;5034342;28;45552;-72
2022/03/09 07:34:08;;;;;;;;;8.50;7.25;;;;;9.95;56.37;100508.28;5035148;28;45486;-71
2022/03/09 07:36:34;;;;;;;;;4.25;3.50;;;;;10.27;56.72;100535.41;5033893;28;45419;-72
2022/03/09 07:39:00;;;;;;;;;9.25;6.00;;;;;10.45;55.21;100518.56;5034355;28;46198;-72
2022/03/09 07:41:25;;;;;;;;;3.00;3.00;;;;;10.55;55.13;100495.34;5030474;28;45441;-72
2022/03/09 07:43:51;;;;;;;;;6.75;6.75;;;;;11.48;53.85;100519.69;5034013;28;45609;-72
2022/03/09 07:46:17;;;;;;;;;5.00;5.00;;;;;14.27;51.32;100528.84;5035020;28;45816;-72
2022/03/09 07:48:43;;;;;;;;;5.75;5.50;;;;;18.03;41.34;100505.16;5034565;28;45497;-72
2022/03/09 07:51:08;;;;;;;;;7.00;6.00;;;;;20.93;35.50;100499.59;5034396;28;45498;-73
2022/03/09 07:53:34;;;;;;;;;6.00;6.00;;;;;22.96;32.27;100504.06;5034541;28;45469;-72
2022/03/09 07:55:59;;;;;;;;;17.67;14.67;;;;;24.65;29.54;100487.44;5032931;28;45494;-73
2022/03/09 07:58:25;;;;;;;;;9.33;9.33;;;;;25.77;28.23;100494.66;5034021;28;45355;-73
2022/03/09 08:00:50;;;;;;;;;21.00;19.00;;;;;26.67;26.30;100487.91;5034006;28;45584;-72
2022/03/09 08:03:16;;;;;;;;;25.25;23.25;;;;;27.65;25.34;100503.75;5030083;28;45498;-73
2022/03/09 08:05:44;;;;;;;;;8.00;7.00;;;;;28.41;24.20;100494.25;5033659;28;45549;-73
2022/03/09 08:08:10;;;;;;;;;21.33;19.33;;;;;29.32;23.01;100501.66;5031648;28;45692;-74
2022/03/09 08:10:36;;;;;;;;;8.00;8.00;;;;;29.78;22.29;100497.66;5034033;28;45528;-73
2022/03/09 08:13:01;;;;;;;;;11.67;8.33;;;;;30.33;21.51;100500.22;5035348;28;45331;-73
2022/03/09 08:15:27;;;;;;;;;8.33;8.33;;;;;31.10;21.44;100514.94;5033921;28;45568;-74
2022/03/09 08:17:52;;;;;;;;;12.33;10.33;;;;;31.49;21.87;100509.09;5035292;28;46568;-73
2022/03/09 08:20:18;;;;;;;;;10.00;9.33;;;;;31.65;18.44;100500.09;5035190;28;45497;-74
2022/03/09 08:22:44;;;;;;;;;12.67;11.00;;;;;32.09;18.32;100507.41;5035349;28;45471;-74
2022/03/09 08:25:09;;;;;;;;;10.33;10.00;;;;;32.56;17.61;100506.34;5035265;28;45589;-74
2022/03/09 08:27:35;;;;;;;;;5.00;4.00;;;;;32.84;17.71;100491.94;5033601;28;47754;-74
2022/03/09 08:30:03;;;;;;;;;7.33;7.00;;;;;32.96;18.44;100482.16;5034767;28;45596;-75
2022/03/09 08:32:29;;;;;;;;;7.33;7.00;;;;;32.25;18.48;100483.91;5036299;28;45387;-74
2022/03/09 08:34:54;;;;;;;;;7.33;7.33;;;;;31.57;18.33;100503.25;5036305;28;45398;-75
2022/03/09 08:37:20;;;;;;;;;8.33;7.67;;;;;31.94;18.78;100492.97;5035073;28;45550;-74
2022/03/09 08:39:48;;;;;;;;;3.00;3.00;;;;;32.24;19.18;100486.72;5034021;28;45409;-75
2022/03/09 08:42:17;;;;;;;;;9.00;9.00;;;;;32.34;19.37;100489.72;5035258;28;45492;-73
2022/03/09 08:44:42;;;;;;;;;8.00;7.00;;;;;31.62;17.84;100484.09;5034593;28;45507;-73
2022/03/09 08:47:09;;;;;;;;;7.67;7.67;;;;;30.22;19.13;100492.69;5035297;28;45536;-78
2022/03/09 08:49:39;;;;;;;;;3.00;3.00;;;;;28.25;20.76;100482.41;5038081;28;45383;-74
2022/03/09 08:52:08;;;;;;;;;6.33;6.33;;;;;27.43;21.37;100499.28;5039015;28;45533;-78
2022/03/09 08:54:33;;;;;;;;;4.33;4.00;;;;;27.29;21.41;100482.88;5038022;28;45399;-77
2022/03/09 08:56:59;;;;;;;;;4.33;4.33;;;;;28.04;21.42;100460.94;5037597;28;46475;-85
2022/03/09 08:59:25;;;;;;;;;5.67;5.67;;;;;27.66;21.21;100374.03;5038235;28;45542;-86
2022/03/09 09:01:51;;;;;;;;;3.00;3.00;;;;;27.70;21.09;100472.25;5040105;28;45398;-86
2022/03/09 09:04:16;;;;;;;;;4.00;4.00;;;;;27.05;21.58;100461.44;5039102;28;45494;-86
2022/03/09 09:06:43;;;;;;;;;4.00;4.00;;;;;26.84;22.12;100495.34;5038418;28;46772;-86
2022/03/09 09:09:09;;;;;;;;;2.00;2.00;;;;;26.74;22.88;100480.50;5038826;28;45388;-85
2022/03/09 09:11:35;;;;;;;;;3.33;2.33;;;;;26.79;22.15;100471.38;5040596;28;45565;-85
2022/03/09 09:14:01;;;;;;;;;3.00;3.00;;;;;26.98;22.23;100466.19;5039006;28;45614;-86
2022/03/09 09:16:26;;;;;;;;;3.00;3.00;;;;;26.94;21.94;100469.91;5043423;28;46138;-85
2022/03/09 09:18:52;;;;;;;;;4.00;4.00;;;;;26.87;22.46;100456.81;5045808;28;45433;-84
2022/03/09 09:21:18;;;;;;;;;4.00;2.67;;;;;26.88;22.77;100466.56;5040940;28;45507;-85
2022/03/09 09:23:43;;;;;;;;;2.00;2.00;;;;;26.88;22.36;100466.56;5039562;28;45610;-83
2022/03/09 09:26:09;;;;;;;;;3.00;3.00;;;;;26.93;22.32;100473.50;5040041;28;45457;-84
2022/03/09 09:28:35;;;;;;;;;2.00;2.00;;;;;26.32;22.62;100486.50;5040164;28;45473;-84
2022/03/09 09:31:00;;;;;;;;;3.00;2.00;;;;;26.11;23.64;100483.69;5039453;28;45336;-83
2022/03/09 09:33:26;;;;;;;;;2.00;2.00;;;;;26.17;22.87;100461.16;5039850;28;45281;-81
2022/03/09 09:35:52;;;;;;;;;2.00;2.00;;;;;25.94;23.56;100462.88;5037245;28;47982;-85
2022/03/09 09:38:18;;;;;;;;;2.67;2.00;;;;;25.98;23.54;100477.91;5039264;28;45402;-82
2022/03/09 09:40:45;;;;;;;;;2.00;2.00;;;;;26.09;23.59;100464.13;5039228;28;45450;-80
2022/03/09 09:43:13;;;;;;;;;4.00;3.00;;;;;26.26;23.36;100452.81;5039656;28;45572;-84
2022/03/09 09:45:40;;;;;;;;;5.00;5.00;;;;;26.56;22.79;100442.75;5039433;28;47539;-84
2022/03/09 09:48:07;;;;;;;;;5.67;4.00;;;;;26.83;22.45;100429.25;5055107;28;45601;-83
2022/03/09 09:50:34;;;;;;;;;11.00;10.33;;;;;27.07;22.17;100443.47;5039324;28;45476;-82
2022/03/09 09:53:04;;;;;;;;;25.00;23.33;;;;;26.23;22.75;100447.56;5039574;28;45229;-84
2022/03/09 09:55:30;;;;;;;;;7.00;6.00;;;;;24.97;24.52;100435.72;5037714;28;46733;-84
2022/03/09 09:57:57;;;;;;;;;2.00;2.00;;;;;24.08;25.20;100422.28;5038127;28;45372;-83
2022/03/09 10:00:22;;;;;;;;;2.00;2.00;;;;;24.16;25.29;100433.63;5038978;28;45469;-82
2022/03/09 10:02:48;;;;;;;;;3.00;3.00;;;;;24.16;25.98;100438.97;5039172;28;45514;-81
2022/03/09 10:05:16;;;;;;;;;3.00;3.00;;;;;24.16;25.38;100436.28;5039076;28;45565;-82
2022/03/09 10:08:03;;;;;;;;;5.00;4.00;;;;;25.16;25.53;100438.66;5038490;28;45394;-82
2022/03/09 10:10:56;;;;;;;;;3.67;3.00;;;;;26.33;24.46;100440.94;5039018;28;45421;-78
2022/03/09 10:13:30;;;;;;;;;3.33;3.00;;;;;27.09;24.01;100421.97;5037876;28;45379;-82
2022/03/09 10:16:20;;;;;;;;;5.67;5.00;;;;;27.41;22.42;100439.44;5037562;28;45628;-82
2022/03/09 10:18:57;;;;;;;;;3.00;2.00;;;;;27.70;21.99;100432.00;5038818;28;45477;-82
2022/03/09 10:21:28;;;;;;;;;1.33;1.00;;;;;28.22;21.92;100431.53;5038918;28;45316;-81
2022/03/09 10:23:57;;;;;;;;;6.00;5.00;;;;;27.96;21.94;100428.19;5039223;28;45398;-82
2022/03/09 10:26:28;;;;;;;;;1.67;1.67;;;;;27.28;22.56;100440.91;5038651;28;45370;-82
2022/03/09 10:29:01;;;;;;;;;2.00;2.00;;;;;26.42;23.32;100433.47;5038513;28;45240;-81
2022/03/09 10:31:35;;;;;;;;;1.00;1.00;;;;;25.54;24.10;100421.38;5038834;28;45271;-81
2022/03/09 10:34:12;;;;;;;;;1.00;1.00;;;;;25.84;24.04;100425.72;5038527;28;45505;-82
2022/03/09 10:37:06;;;;;;;;;5.33;5.33;;;;;26.31;23.51;100416.00;5038052;28;45304;-83
2022/03/09 10:39:35;;;;;;;;;1.00;1.00;;;;;27.17;23.23;100420.72;5038460;28;45303;-82
2022/03/09 10:42:03;;;;;;;;;2.00;2.00;;;;;27.80;21.85;100402.94;5037220;28;45509;-82
2022/03/09 10:44:46;;;;;;;;;1.33;1.00;;;;;28.58;21.46;100422.75;5038799;28;45298;-82
2022/03/09 10:47:28;;;;;;;;;0.00;0.00;;;;;28.60;20.94;100421.72;5038196;28;46178;-82
2022/03/09 10:50:06;;;;;;;;;0.00;0.00;;;;;28.42;21.70;100426.13;5038456;28;45248;-74
2022/03/09 10:53:03;;;;;;;;;1.00;1.00;;;;;28.19;21.34;100419.09;5038546;28;45399;-80
2022/03/09 10:55:35;;;;;;;;;1.00;1.00;;;;;27.77;21.48;100407.50;5042149;28;45271;-82
2022/03/09 10:58:18;;;;;;;;;1.00;0.00;;;;;27.01;22.50;100413.38;5037046;28;47002;-82
2022/03/09 11:00:46;;;;;;;;;1.00;1.00;;;;;26.38;22.92;100405.94;5036741;28;45502;-75
2022/03/09 11:03:18;;;;;;;;;0.00;0.00;;;;;25.68;23.07;100394.16;5038581;28;45282;-81
2022/03/09 11:05:50;;;;;;;;;0.33;0.33;;;;;25.41;23.55;100417.41;5038187;28;45240;-80
2022/03/09 11:08:18;;;;;;;;;1.00;1.00;;;;;25.35;24.17;100414.94;5037974;28;45668;-80
2022/03/09 11:10:46;;;;;;;;;0.33;0.33;;;;;25.37;24.12;100410.41;5037005;28;45419;-72
2022/03/09 11:13:12;;;;;;;;;0.33;0.33;;;;;25.06;24.59;100398.00;5038852;28;45205;-73
2022/03/09 11:15:39;;;;;;;;;1.00;1.00;;;;;24.65;24.87;100376.16;5038067;28;45358;-75
2022/03/09 11:18:05;;;;;;;;;2.33;1.00;;;;;24.18;25.48;100370.41;5037934;28;46054;-75
2022/03/09 11:20:31;;;;;;;;;1.00;1.00;;;;;23.91;25.70;100370.25;5037285;28;45328;-75
2022/03/09 11:22:57;;;;;;;;;1.00;1.00;;;;;24.18;25.83;100397.09;5037987;28;45292;-74
2022/03/09 11:25:24;;;;;;;;;1.67;0.67;;;;;24.16;25.63;100370.44;5036856;28;45543;-75
2022/03/09 11:27:53;;;;;;;;;2.00;1.67;;;;;24.25;25.92;100390.63;5037720;28;45632;-74